createdAt,value
2022-09-05T00:01:40.807Z,16.00
2022-09-05T00:06:02.390Z,16.00
2022-09-05T00:10:20.620Z,16.00
2022-09-05T00:15:15.097Z,16.00
2022-09-05T00:24:19.772Z,16.00
2022-09-05T00:24:25.379Z,15.90
2022-09-05T00:29:02.870Z,15.90
2022-09-05T00:33:22.583Z,15.80
2022-09-05T00:37:45.103Z,15.80
2022-09-05T00:41:49.916Z,15.70
2022-09-05T00:46:14.964Z,15.70
2022-09-05T00:50:29.934Z,15.60
2022-09-05T00:54:44.352Z,15.50
2022-09-05T00:59:29.546Z,15.40
2022-09-05T01:08:29.394Z,15.40
2022-09-05T01:12:46.556Z,15.30
2022-09-05T01:17:22.219Z,15.30
2022-09-05T01:21:58.115Z,15.30
2022-09-05T01:25:59.732Z,15.30
2022-09-05T01:30:12.856Z,15.20
2022-09-05T01:34:32.599Z,15.10
2022-09-05T01:38:48.332Z,15.10
2022-09-05T01:43:35.103Z,15.10
2022-09-05T01:47:40.785Z,15.10
2022-09-05T01:52:23.882Z,15.10
2022-09-05T01:56:35.648Z,15.00
2022-09-05T02:01:31.774Z,15.00
2022-09-05T02:06:03.046Z,14.90
2022-09-05T02:10:55.432Z,14.90
2022-09-05T02:15:25.361Z,14.90
2022-09-05T02:19:31.513Z,14.80
2022-09-05T02:23:41.845Z,14.80
2022-09-05T02:28:04.957Z,14.80
2022-09-05T02:32:20.957Z,14.80
2022-09-05T02:36:35.073Z,14.70
2022-09-05T02:45:20.664Z,14.60
2022-09-05T02:45:23.977Z,14.60
2022-09-05T02:57:20.236Z,14.60
2022-09-05T02:57:42.484Z,14.60
2022-09-05T02:59:05.717Z,14.60
2022-09-05T03:03:14.514Z,14.60
2022-09-05T03:07:21.985Z,14.60
2022-09-05T03:11:42.775Z,14.60
2022-09-05T03:15:56.169Z,14.70
2022-09-05T03:20:35.491Z,14.70
2022-09-05T03:25:14.709Z,14.80
2022-09-05T03:30:01.733Z,14.80
2022-09-05T03:34:39.141Z,14.80
2022-09-05T03:38:59.241Z,14.70
2022-09-05T03:43:09.771Z,14.70
2022-09-05T03:48:13.420Z,14.70
2022-09-05T03:57:14.767Z,14.70
2022-09-05T03:57:42.732Z,14.70
2022-09-05T04:04:33.822Z,14.70
2022-09-05T04:08:20.390Z,14.70
2022-09-05T04:10:57.663Z,14.70
2022-09-05T04:15:22.601Z,14.60
2022-09-05T04:19:50.439Z,14.60
2022-09-05T04:23:59.942Z,14.60
2022-09-05T04:28:19.860Z,14.50
2022-09-05T04:32:44.146Z,14.50
2022-09-05T04:36:58.343Z,14.50
2022-09-05T04:41:04.384Z,14.50
2022-09-05T04:45:17.838Z,14.40
2022-09-05T04:49:50.682Z,14.30
2022-09-05T04:54:27.545Z,14.30
2022-09-05T04:59:55.277Z,14.20
2022-09-05T05:06:18.131Z,14.20
2022-09-05T05:08:27.945Z,14.10
2022-09-05T05:18:00.728Z,14.20
2022-09-05T05:18:42.392Z,14.20
2022-09-05T05:22:27.556Z,14.20
2022-09-05T05:27:00.011Z,14.20
2022-09-05T05:31:16.909Z,14.20
2022-09-05T05:35:30.035Z,14.30
2022-09-05T05:39:37.864Z,14.30
2022-09-05T05:43:46.282Z,14.30
2022-09-05T05:47:56.631Z,14.40
2022-09-05T05:52:04.288Z,14.50
2022-09-05T05:56:30.251Z,14.60
2022-09-05T06:00:53.502Z,14.60
2022-09-05T06:05:19.369Z,14.70
2022-09-05T06:13:48.791Z,14.80
2022-09-05T06:15:00.479Z,14.90
2022-09-05T06:18:45.817Z,15.10
2022-09-05T06:23:06.834Z,15.20
2022-09-05T06:27:36.470Z,15.40
2022-09-05T06:31:57.678Z,15.50
2022-09-05T06:36:16.540Z,15.80
2022-09-05T06:40:34.369Z,16.00
2022-09-05T06:44:55.548Z,16.20
2022-09-05T06:49:29.697Z,16.40
2022-09-05T06:53:35.414Z,16.60
2022-09-05T06:58:07.552Z,16.90
2022-09-05T07:02:57.995Z,17.30
2022-09-05T07:07:35.357Z,17.80
2022-09-05T07:11:40.191Z,18.20
2022-09-05T07:16:07.348Z,18.40
2022-09-05T07:20:23.652Z,18.50
2022-09-05T07:24:53.612Z,18.70
2022-09-05T07:28:54.744Z,18.90
2022-09-05T07:33:01.359Z,19.00
2022-09-05T07:37:17.914Z,19.30
2022-09-05T07:41:26.655Z,19.40
2022-09-05T07:45:29.810Z,19.80
2022-09-05T07:49:33.908Z,19.90
2022-09-05T07:56:50.139Z,20.10
2022-09-05T07:58:14.604Z,20.40
2022-09-05T08:02:16.529Z,20.50
2022-09-05T08:07:01.273Z,20.70
2022-09-05T08:11:24.043Z,21.00
2022-09-05T08:15:51.038Z,21.30
2022-09-05T08:20:09.531Z,21.50
2022-09-05T08:24:15.552Z,21.70
2022-09-05T08:28:24.409Z,21.80
2022-09-05T08:32:39.035Z,22.00
2022-09-05T08:36:47.491Z,22.20
2022-09-05T08:40:54.467Z,22.30
2022-09-05T08:46:40.348Z,22.50
2022-09-05T08:49:58.708Z,22.80
2022-09-05T08:54:16.301Z,23.20
2022-09-05T08:58:39.431Z,23.60
2022-09-05T09:02:48.148Z,23.90
2022-09-05T09:07:51.536Z,24.00
2022-09-05T09:12:04.025Z,24.10
2022-09-05T09:16:24.461Z,24.60
2022-09-05T09:20:33.350Z,25.30
2022-09-05T09:25:15.487Z,25.70
2022-09-05T09:29:19.302Z,26.20
2022-09-05T09:33:29.205Z,26.60
2022-09-05T09:37:54.395Z,27.20
2022-09-05T09:42:33.386Z,27.90
2022-09-05T09:46:54.554Z,28.60
2022-09-05T09:51:33.589Z,29.00
2022-09-05T09:55:40.720Z,29.50
2022-09-05T10:00:01.008Z,30.30
2022-09-05T10:10:33.477Z,30.60
2022-09-05T10:10:47.752Z,31.20
2022-09-05T10:14:26.183Z,31.90
2022-09-05T10:19:10.756Z,32.00
2022-09-05T10:23:33.751Z,32.20
2022-09-05T10:28:05.115Z,32.30
2022-09-05T10:35:04.897Z,32.10
2022-09-05T10:37:09.378Z,32.10
2022-09-05T10:41:21.177Z,32.10
2022-09-05T10:45:43.195Z,31.70
2022-09-05T10:49:49.495Z,31.00
2022-09-05T10:54:07.476Z,30.70
2022-09-05T10:58:41.807Z,30.30
2022-09-05T11:02:56.435Z,30.20
2022-09-05T11:07:27.927Z,30.20
2022-09-05T11:11:46.661Z,30.10
2022-09-05T11:16:04.283Z,30.10
2022-09-05T11:20:35.365Z,30.00
2022-09-05T11:25:04.033Z,30.10
2022-09-05T11:29:10.777Z,30.40
2022-09-05T11:38:43.972Z,30.20
2022-09-05T11:40:06.360Z,30.20
2022-09-05T11:42:55.803Z,30.00
2022-09-05T11:47:30.167Z,30.10
2022-09-05T11:52:08.824Z,30.10
2022-09-05T11:56:32.579Z,29.70
2022-09-05T12:00:43.242Z,29.90
2022-09-05T12:05:49.201Z,30.20
2022-09-05T12:09:59.255Z,30.30
2022-09-05T12:14:25.480Z,30.50
2022-09-05T12:18:44.502Z,30.60
2022-09-05T12:23:31.219Z,30.30
2022-09-05T12:27:46.118Z,30.10
2022-09-05T12:35:22.527Z,29.80
2022-09-05T12:40:40.438Z,29.30
2022-09-05T12:41:39.695Z,29.50
2022-09-05T12:45:59.438Z,29.60
2022-09-05T12:50:15.197Z,29.20
2022-09-05T12:54:33.079Z,28.90
2022-09-05T13:03:02.402Z,29.20
2022-09-05T13:03:37.914Z,29.60
2022-09-05T13:07:42.563Z,29.80
2022-09-05T13:14:47.028Z,29.80
2022-09-05T13:16:29.261Z,29.80
2022-09-05T13:20:44.696Z,29.90
2022-09-05T13:24:52.689Z,29.80
2022-09-05T13:29:21.869Z,29.90
2022-09-05T13:38:05.946Z,29.90
2022-09-05T13:38:35.944Z,29.90
2022-09-05T13:42:43.335Z,30.00
2022-09-05T13:47:00.626Z,29.90
2022-09-05T13:51:12.743Z,29.70
2022-09-05T13:55:22.577Z,29.90
2022-09-05T13:59:24.954Z,29.80
2022-09-05T14:13:50.319Z,30.40
2022-09-05T14:17:55.162Z,30.40
2022-09-05T14:21:57.063Z,30.30
2022-09-05T14:26:03.323Z,30.10
2022-09-05T14:30:14.230Z,29.80
2022-09-05T14:37:42.572Z,29.70
2022-09-05T14:39:45.205Z,30.10
2022-09-05T14:44:05.380Z,30.00
2022-09-05T14:48:09.880Z,29.90
2022-09-05T14:52:20.342Z,29.60
2022-09-05T14:57:23.723Z,29.20
2022-09-05T15:02:58.050Z,29.00
2022-09-05T15:05:27.375Z,28.90
2022-09-05T15:12:21.379Z,28.60
2022-09-05T15:14:12.887Z,28.70
2022-09-05T15:18:17.335Z,28.60
2022-09-05T15:22:30.878Z,28.60
2022-09-05T15:26:34.088Z,28.50
2022-09-05T15:30:36.587Z,28.50
2022-09-05T15:34:39.608Z,28.30
2022-09-05T15:38:55.993Z,28.20
2022-09-05T15:43:05.360Z,28.00
2022-09-05T15:47:10.319Z,27.80
2022-09-05T15:55:45.512Z,27.60
2022-09-05T15:59:58.171Z,27.50
2022-09-05T16:10:31.698Z,27.40
2022-09-05T16:10:46.734Z,27.40
2022-09-05T16:12:57.392Z,27.20
2022-09-05T16:23:14.245Z,27.10
2022-09-05T16:23:23.940Z,27.00
2022-09-05T16:26:06.249Z,27.00
2022-09-05T16:30:12.067Z,26.90
2022-09-05T16:34:38.487Z,26.90
2022-09-05T16:38:51.022Z,26.90
2022-09-05T16:43:15.789Z,26.80
2022-09-05T16:47:29.288Z,26.70
2022-09-05T16:52:00.805Z,26.60
2022-09-05T16:56:10.543Z,26.40
2022-09-05T17:00:12.436Z,26.20
2022-09-05T17:04:21.915Z,26.00
2022-09-05T17:08:35.426Z,25.80
2022-09-05T17:12:38.768Z,25.60
2022-09-05T17:17:19.525Z,25.40
2022-09-05T17:22:47.558Z,25.20
2022-09-05T17:29:49.405Z,25.10
2022-09-05T17:39:44.943Z,24.50
2022-09-05T17:43:58.176Z,24.30
2022-09-05T17:48:00.589Z,24.10
2022-09-05T17:52:18.624Z,24.00
2022-09-05T17:56:40.743Z,23.80
2022-09-05T18:00:47.761Z,23.60
2022-09-05T18:04:53.569Z,23.50
2022-09-05T18:08:56.276Z,23.30
2022-09-05T18:13:32.327Z,23.20
2022-09-05T18:17:38.497Z,23.10
2022-09-05T18:21:55.416Z,22.90
2022-09-05T18:26:09.404Z,22.70
2022-09-05T18:30:26.935Z,22.60
2022-09-05T18:34:31.916Z,22.50
2022-09-05T18:38:51.554Z,22.40
2022-09-05T18:42:55.209Z,22.20
2022-09-05T18:47:32.137Z,22.10
2022-09-05T18:51:52.951Z,21.90
2022-09-05T18:56:27.513Z,21.70
2022-09-05T19:00:44.778Z,21.70
2022-09-05T19:04:56.111Z,21.50
2022-09-05T19:09:08.548Z,21.40
2022-09-05T19:13:23.932Z,21.30
2022-09-05T19:17:41.008Z,21.20
2022-09-05T19:22:09.108Z,21.10
2022-09-05T19:26:21.380Z,21.10
2022-09-05T19:37:08.707Z,21.00
2022-09-05T19:37:22.834Z,20.80
2022-09-05T19:41:13.573Z,20.70
2022-09-05T19:47:41.872Z,20.50
2022-09-05T19:48:07.632Z,20.40
2022-09-05T19:52:17.191Z,20.30
2022-09-05T19:56:20.588Z,20.20
2022-09-05T20:00:24.578Z,20.10
2022-09-05T20:08:46.751Z,20.00
2022-09-05T20:12:48.476Z,19.90
2022-09-05T20:16:52.918Z,19.90
2022-09-05T20:21:15.924Z,19.80
2022-09-05T20:25:35.975Z,19.80
2022-09-05T20:30:02.235Z,19.70
2022-09-05T20:34:39.343Z,19.60
2022-09-05T20:43:19.457Z,19.60
2022-09-05T20:43:33.002Z,19.50
2022-09-05T20:54:07.644Z,19.50
2022-09-05T20:54:26.553Z,19.40
2022-09-05T20:56:32.331Z,19.40
2022-09-05T21:00:34.532Z,19.40
2022-09-05T21:04:38.568Z,19.30
2022-09-05T21:08:40.503Z,19.20
2022-09-05T21:12:46.695Z,19.30
2022-09-05T21:17:08.264Z,19.20
2022-09-05T21:21:48.208Z,19.10
2022-09-05T21:25:58.656Z,19.10
2022-09-05T21:30:23.533Z,19.00
2022-09-05T21:34:38.273Z,19.00
2022-09-05T21:38:46.779Z,18.90
2022-09-05T21:47:37.938Z,18.90
2022-09-05T21:47:48.554Z,18.90
2022-09-05T21:51:38.579Z,18.90
2022-09-05T21:59:17.485Z,18.80
2022-09-05T22:00:10.607Z,18.80
2022-09-05T22:04:13.040Z,18.80
2022-09-05T22:08:14.697Z,18.80
2022-09-05T22:12:29.960Z,18.80
2022-09-05T22:16:33.155Z,18.70
2022-09-05T22:20:37.779Z,18.70
2022-09-05T22:24:39.503Z,18.60
2022-09-05T22:28:48.639Z,18.60
2022-09-05T22:32:50.348Z,18.60
2022-09-05T22:36:52.406Z,18.50
2022-09-05T22:40:56.605Z,18.50
2022-09-05T22:44:59.101Z,18.50
2022-09-05T22:49:00.786Z,18.40
2022-09-05T22:53:06.593Z,18.40
2022-09-05T22:57:08.276Z,18.40
2022-09-05T23:01:11.099Z,18.40
2022-09-05T23:05:12.847Z,18.40
2022-09-05T23:09:14.612Z,18.40
2022-09-05T23:13:16.466Z,18.30
2022-09-05T23:17:18.174Z,18.30
2022-09-05T23:21:19.935Z,18.30
2022-09-05T23:25:22.213Z,18.20
2022-09-05T23:29:23.991Z,18.30
2022-09-05T23:33:25.842Z,18.30
2022-09-05T23:37:27.837Z,18.30
2022-09-05T23:41:29.924Z,18.30
2022-09-05T23:45:31.669Z,18.30
2022-09-05T23:49:33.369Z,18.20
2022-09-05T23:53:35.211Z,18.20
2022-09-05T23:57:37.363Z,18.10
